createdAt,value
2019-02-05T00:01:38.903Z,6.95
2019-02-05T00:04:08.666Z,6.89
2019-02-05T00:06:38.327Z,6.81
2019-02-05T00:09:11.905Z,6.94
2019-02-05T00:11:41.535Z,7.02
2019-02-05T00:14:11.149Z,7.03
2019-02-05T00:16:40.997Z,7.03
2019-02-05T00:19:10.510Z,7.08
2019-02-05T00:21:40.015Z,7.15
2019-02-05T00:24:09.501Z,7.19
2019-02-05T00:26:39.399Z,7.29
2019-02-05T00:29:08.937Z,7.28
2019-02-05T00:31:38.653Z,7.31
2019-02-05T00:34:08.122Z,7.30
2019-02-05T00:36:37.586Z,7.36
2019-02-05T00:39:09.511Z,7.42
2019-02-05T00:41:38.951Z,7.33
2019-02-05T00:44:08.447Z,7.37
2019-02-05T00:46:37.975Z,7.45
2019-02-05T00:49:07.474Z,7.43
2019-02-05T00:51:36.973Z,7.40
2019-02-05T00:54:06.732Z,7.40
2019-02-05T00:56:36.179Z,7.38
2019-02-05T00:59:05.939Z,7.42
2019-02-05T01:01:35.445Z,7.40
2019-02-05T01:04:05.331Z,7.46
2019-02-05T01:06:34.891Z,7.42
2019-02-05T01:09:07.559Z,7.32
2019-02-05T01:11:37.010Z,7.30
2019-02-05T01:14:06.992Z,7.27
2019-02-05T01:16:36.479Z,7.21
2019-02-05T01:19:05.946Z,7.19
2019-02-05T01:21:35.514Z,7.19
2019-02-05T01:24:05.366Z,7.10
2019-02-05T01:26:34.870Z,7.05
2019-02-05T01:29:04.354Z,7.15
2019-02-05T01:31:33.901Z,7.15
2019-02-05T01:34:03.414Z,7.06
2019-02-05T01:36:32.883Z,7.05
2019-02-05T01:39:02.398Z,7.07
2019-02-05T01:41:32.268Z,7.20
2019-02-05T01:44:01.781Z,7.14
2019-02-05T01:46:31.222Z,7.18
2019-02-05T01:49:00.681Z,7.22
2019-02-05T01:51:30.148Z,7.26
2019-02-05T01:53:59.679Z,7.27
2019-02-05T01:56:40.183Z,7.40
2019-02-05T01:59:00.794Z,7.43
2019-02-05T02:01:30.285Z,7.40
2019-02-05T02:03:59.742Z,7.39
2019-02-05T02:06:29.217Z,7.36
2019-02-05T02:08:58.709Z,7.41
2019-02-05T02:11:28.358Z,7.44
2019-02-05T02:13:57.841Z,7.46
2019-02-05T02:16:27.504Z,7.50
2019-02-05T02:18:56.943Z,7.53
2019-02-05T02:21:26.456Z,7.49
2019-02-05T02:23:55.957Z,7.51
2019-02-05T02:26:25.907Z,7.50
2019-02-05T02:28:55.383Z,7.53
2019-02-05T02:31:24.875Z,7.53
2019-02-05T02:33:54.285Z,7.49
2019-02-05T02:36:25.509Z,7.56
2019-02-05T02:38:55.012Z,7.47
2019-02-05T02:41:24.514Z,7.38
2019-02-05T02:43:54.022Z,7.45
2019-02-05T02:46:23.526Z,7.47
2019-02-05T02:48:52.994Z,7.44
2019-02-05T02:51:22.498Z,7.45
2019-02-05T02:53:52.274Z,7.43
2019-02-05T02:56:21.790Z,7.36
2019-02-05T02:58:51.301Z,7.33
2019-02-05T03:01:20.830Z,7.33
2019-02-05T03:03:50.368Z,7.14
2019-02-05T03:06:19.850Z,7.15
2019-02-05T03:08:49.310Z,7.13
2019-02-05T03:11:19.239Z,7.05
2019-02-05T03:13:48.823Z,7.02
2019-02-05T03:16:18.382Z,6.99
2019-02-05T03:18:47.887Z,6.94
2019-02-05T03:21:17.408Z,6.96
2019-02-05T03:23:46.896Z,6.98
2019-02-05T03:26:16.362Z,6.99
2019-02-05T03:28:46.019Z,7.04
2019-02-05T03:31:15.462Z,6.95
2019-02-05T03:33:44.945Z,6.92
2019-02-05T03:36:14.420Z,6.95
2019-02-05T03:38:43.895Z,6.91
2019-02-05T03:41:13.363Z,6.91
2019-02-05T03:43:42.879Z,6.94
2019-02-05T03:46:14.445Z,6.97
2019-02-05T03:48:45.482Z,6.96
2019-02-05T03:51:51.976Z,6.95
2019-02-05T03:54:35.693Z,6.92
2019-02-05T03:57:43.525Z,6.96
2019-02-05T04:00:53.958Z,6.86
2019-02-05T04:04:10.535Z,6.69
2019-02-05T04:07:25.133Z,6.55
2019-02-05T04:10:47.633Z,6.55
2019-02-05T04:14:01.170Z,6.47
2019-02-05T04:17:26.531Z,6.46
2019-02-05T04:20:42.923Z,6.31
2019-02-05T04:23:44.693Z,6.34
2019-02-05T04:27:00.954Z,6.22
2019-02-05T04:29:47.931Z,6.16
2019-02-05T04:32:38.134Z,6.17
2019-02-05T04:35:52.411Z,6.21
2019-02-05T04:39:12.078Z,6.19
2019-02-05T04:42:10.754Z,6.21
2019-02-05T04:45:05.656Z,6.13
2019-02-05T04:48:06.387Z,5.97
2019-02-05T04:51:16.918Z,5.97
2019-02-05T04:54:08.379Z,5.99
2019-02-05T04:57:27.907Z,5.91
2019-02-05T05:00:31.673Z,5.91
2019-02-05T05:03:16.351Z,6.02
2019-02-05T05:06:08.872Z,5.94
2019-02-05T05:09:10.720Z,5.99
2019-02-05T05:11:44.113Z,5.88
2019-02-05T05:14:13.621Z,5.86
2019-02-05T05:16:43.711Z,5.92
2019-02-05T05:19:13.204Z,5.96
2019-02-05T05:21:42.778Z,6.02
2019-02-05T05:24:12.353Z,6.04
2019-02-05T05:26:42.220Z,6.01
2019-02-05T05:29:13.477Z,6.00
2019-02-05T05:31:43.357Z,6.02
2019-02-05T05:34:12.911Z,6.03
2019-02-05T05:36:49.186Z,6.07
2019-02-05T05:39:19.063Z,5.98
2019-02-05T05:41:48.811Z,6.02
2019-02-05T05:44:18.326Z,5.94
2019-02-05T05:46:47.866Z,5.87
2019-02-05T05:49:17.433Z,5.94
2019-02-05T05:51:46.932Z,5.88
2019-02-05T05:54:16.495Z,5.92
2019-02-05T05:56:46.009Z,6.00
2019-02-05T05:59:15.514Z,5.98
2019-02-05T06:01:45.017Z,5.94
2019-02-05T06:04:14.601Z,5.99
2019-02-05T06:06:44.403Z,5.98
2019-02-05T06:09:14.023Z,6.05
2019-02-05T06:11:43.588Z,6.00
2019-02-05T06:14:13.099Z,6.03
2019-02-05T06:16:42.601Z,6.03
2019-02-05T06:19:12.331Z,6.10
2019-02-05T06:21:42.264Z,6.05
2019-02-05T06:24:11.833Z,6.08
2019-02-05T06:26:41.310Z,6.08
2019-02-05T06:29:10.854Z,6.05
2019-02-05T06:31:40.402Z,6.05
2019-02-05T06:34:09.937Z,6.12
2019-02-05T06:36:39.480Z,6.19
2019-02-05T06:39:09.800Z,6.18
2019-02-05T06:41:39.580Z,6.21
2019-02-05T06:44:09.078Z,6.20
2019-02-05T06:46:38.608Z,6.12
2019-02-05T06:49:08.340Z,6.20
2019-02-05T06:51:37.857Z,6.28
2019-02-05T06:54:07.365Z,6.36
2019-02-05T06:56:36.860Z,6.37
2019-02-05T06:59:06.639Z,6.49
2019-02-05T07:01:36.147Z,6.53
2019-02-05T07:04:06.481Z,6.44
2019-02-05T07:06:35.930Z,6.39
2019-02-05T07:09:10.102Z,6.50
2019-02-05T07:11:40.283Z,6.53
2019-02-05T07:14:10.176Z,6.46
2019-02-05T07:16:40.118Z,6.52
2019-02-05T07:19:09.699Z,6.52
2019-02-05T07:21:39.321Z,6.45
2019-02-05T07:24:08.848Z,6.45
2019-02-05T07:26:38.407Z,6.47
2019-02-05T07:29:08.591Z,6.36
2019-02-05T07:31:38.116Z,6.46
2019-02-05T07:34:07.676Z,6.46
2019-02-05T07:36:37.344Z,6.45
2019-02-05T07:39:09.232Z,6.40
2019-02-05T07:41:38.795Z,6.44
2019-02-05T07:44:08.416Z,6.47
2019-02-05T07:46:37.930Z,6.55
2019-02-05T07:49:07.442Z,6.61
2019-02-05T07:51:37.023Z,6.61
2019-02-05T07:54:06.665Z,6.62
2019-02-05T07:56:36.553Z,6.64
2019-02-05T07:59:10.263Z,6.72
2019-02-05T08:01:37.682Z,6.79
2019-02-05T08:04:07.319Z,6.78
2019-02-05T08:06:36.863Z,6.79
2019-02-05T08:09:10.072Z,6.83
2019-02-05T08:11:41.412Z,6.88
2019-02-05T08:14:11.175Z,6.84
2019-02-05T08:16:40.781Z,6.78
2019-02-05T08:19:10.279Z,6.82
2019-02-05T08:21:40.006Z,6.92
2019-02-05T08:24:09.476Z,6.95
2019-02-05T08:26:38.994Z,6.99
2019-02-05T08:29:09.004Z,7.01
2019-02-05T08:31:38.513Z,7.02
2019-02-05T08:34:08.029Z,7.05
2019-02-05T08:36:37.988Z,6.97
2019-02-05T08:39:09.984Z,7.07
2019-02-05T08:41:39.640Z,7.11
2019-02-05T08:44:09.219Z,7.21
2019-02-05T08:46:38.848Z,7.35
2019-02-05T08:49:08.375Z,7.40
2019-02-05T08:51:37.913Z,7.37
2019-02-05T08:54:07.434Z,7.34
2019-02-05T08:56:37.033Z,7.45
2019-02-05T08:59:06.684Z,7.53
2019-02-05T09:01:36.676Z,7.66
2019-02-05T09:04:06.217Z,7.73
2019-02-05T09:06:35.739Z,7.65
2019-02-05T09:09:08.366Z,7.68
2019-02-05T09:11:37.826Z,7.73
2019-02-05T09:14:11.169Z,7.81
2019-02-05T09:16:38.632Z,7.96
2019-02-05T09:19:08.181Z,8.07
2019-02-05T09:21:37.704Z,8.11
2019-02-05T09:24:07.406Z,8.21
2019-02-05T09:26:37.023Z,8.29
2019-02-05T09:29:06.548Z,8.33
2019-02-05T09:31:36.124Z,8.29
2019-02-05T09:34:06.285Z,8.23
2019-02-05T09:36:35.806Z,8.20
2019-02-05T09:39:08.831Z,8.33
2019-02-05T09:41:38.312Z,8.34
2019-02-05T09:44:07.839Z,8.44
2019-02-05T09:46:37.539Z,8.52
2019-02-05T09:49:07.316Z,8.55
2019-02-05T09:51:36.809Z,8.42
2019-02-05T09:54:06.414Z,8.40
2019-02-05T09:56:35.872Z,8.32
2019-02-05T09:59:05.478Z,8.45
2019-02-05T10:01:35.753Z,8.64
2019-02-05T10:04:05.813Z,8.82
2019-02-05T10:06:35.377Z,8.88
2019-02-05T10:09:08.264Z,8.93
2019-02-05T10:11:37.771Z,9.03
2019-02-05T10:14:07.361Z,9.17
2019-02-05T10:16:36.854Z,9.26
2019-02-05T10:19:06.379Z,9.31
2019-02-05T10:21:35.945Z,9.41
2019-02-05T10:24:05.840Z,9.61
2019-02-05T10:26:35.663Z,9.59
2019-02-05T10:29:05.187Z,9.42
2019-02-05T10:31:34.696Z,9.30
2019-02-05T10:34:04.333Z,9.17
2019-02-05T10:36:33.898Z,9.24
2019-02-05T10:39:05.202Z,9.18
2019-02-05T10:41:34.905Z,8.97
2019-02-05T10:44:04.869Z,8.99
2019-02-05T10:46:34.378Z,8.80
2019-02-05T10:49:03.970Z,8.86
2019-02-05T10:51:33.935Z,8.70
2019-02-05T10:54:03.438Z,8.63
2019-02-05T10:56:32.957Z,8.63
2019-02-05T10:59:02.497Z,8.64
2019-02-05T11:01:32.012Z,8.69
2019-02-05T11:04:07.716Z,8.74
2019-02-05T11:06:37.460Z,8.82
2019-02-05T11:09:10.712Z,9.00
2019-02-05T11:11:40.294Z,9.24
2019-02-05T11:14:09.839Z,9.45
2019-02-05T11:16:39.522Z,9.55
2019-02-05T11:19:09.184Z,9.71
2019-02-05T11:21:39.022Z,9.79
2019-02-05T11:24:08.640Z,10.01
2019-02-05T11:26:38.138Z,10.04
2019-02-05T11:29:07.636Z,9.94
2019-02-05T11:31:37.167Z,9.92
2019-02-05T11:34:06.735Z,10.10
2019-02-05T11:36:36.253Z,10.17
2019-02-05T11:39:13.538Z,10.38
2019-02-05T11:41:43.030Z,10.44
2019-02-05T11:44:12.566Z,10.51
2019-02-05T11:46:42.099Z,10.67
2019-02-05T11:49:11.604Z,10.81
2019-02-05T11:51:41.433Z,10.85
2019-02-05T11:54:10.962Z,10.92
2019-02-05T11:56:40.491Z,10.95
2019-02-05T11:59:09.983Z,11.05
2019-02-05T12:01:40.684Z,11.12
2019-02-05T12:04:10.191Z,11.14
2019-02-05T12:06:39.734Z,11.20
2019-02-05T12:09:19.651Z,11.17
2019-02-05T12:11:49.159Z,11.29
2019-02-05T12:14:18.654Z,11.23
2019-02-05T12:16:48.124Z,11.31
2019-02-05T12:19:17.658Z,11.38
2019-02-05T12:21:47.171Z,11.52
2019-02-05T12:24:16.658Z,11.63
2019-02-05T12:26:46.175Z,11.53
2019-02-05T12:29:15.737Z,11.56
2019-02-05T12:31:45.242Z,11.56
2019-02-05T12:34:14.720Z,11.68
2019-02-05T12:36:44.213Z,11.82
2019-02-05T12:39:20.664Z,11.83
2019-02-05T12:41:50.178Z,11.75
2019-02-05T12:44:19.669Z,11.83
2019-02-05T12:46:49.148Z,11.98
2019-02-05T12:49:18.698Z,12.01
2019-02-05T12:51:48.220Z,11.98
2019-02-05T12:54:17.740Z,11.97
2019-02-05T12:56:47.246Z,12.06
2019-02-05T12:59:16.956Z,12.16
2019-02-05T13:01:46.460Z,12.26
2019-02-05T13:04:15.944Z,12.25
2019-02-05T13:06:45.423Z,12.36
2019-02-05T13:09:15.013Z,12.40
2019-02-05T13:11:45.588Z,12.10
2019-02-05T13:14:15.093Z,11.82
2019-02-05T13:16:44.751Z,11.57
2019-02-05T13:19:14.387Z,11.34
2019-02-05T13:21:43.893Z,11.30
2019-02-05T13:24:16.486Z,11.29
2019-02-05T13:26:44.700Z,11.29
2019-02-05T13:29:28.878Z,11.34
2019-02-05T13:31:57.812Z,11.46
2019-02-05T13:34:27.505Z,11.17
2019-02-05T13:36:57.017Z,11.01
2019-02-05T13:39:26.478Z,10.95
2019-02-05T13:41:56.030Z,10.95
2019-02-05T13:44:25.518Z,10.97
2019-02-05T13:46:55.023Z,10.69
2019-02-05T13:49:24.616Z,10.57
2019-02-05T13:51:54.088Z,10.63
2019-02-05T13:54:23.881Z,10.60
2019-02-05T13:56:53.415Z,10.55
2019-02-05T13:59:22.971Z,10.34
2019-02-05T14:01:52.446Z,10.26
2019-02-05T14:04:21.927Z,10.29
2019-02-05T14:06:51.408Z,10.23
2019-02-05T14:09:20.915Z,10.20
2019-02-05T14:11:50.402Z,10.03
2019-02-05T14:14:19.890Z,9.78
2019-02-05T14:16:49.428Z,9.69
2019-02-05T14:19:18.904Z,9.71
2019-02-05T14:21:48.408Z,9.58
2019-02-05T14:24:17.924Z,9.49
2019-02-05T14:26:47.439Z,9.24
2019-02-05T14:29:16.930Z,9.23
2019-02-05T14:31:46.470Z,9.21
2019-02-05T14:34:16.198Z,9.16
2019-02-05T14:36:45.669Z,9.09
2019-02-05T14:39:15.162Z,9.10
2019-02-05T14:41:44.659Z,9.14
2019-02-05T14:44:14.148Z,9.03
2019-02-05T14:46:43.666Z,9.09
2019-02-05T14:49:13.188Z,9.03
2019-02-05T14:51:42.702Z,9.06
2019-02-05T14:54:12.185Z,8.88
2019-02-05T14:56:41.651Z,8.96
2019-02-05T14:59:11.162Z,8.92
2019-02-05T15:01:43.155Z,8.95
2019-02-05T15:04:11.949Z,8.90
2019-02-05T15:06:41.500Z,8.84
2019-02-05T15:09:11.384Z,8.62
2019-02-05T15:11:40.867Z,8.60
2019-02-05T15:14:10.328Z,8.57
2019-02-05T15:16:40.242Z,8.56
2019-02-05T15:19:09.812Z,8.46
2019-02-05T15:21:39.383Z,8.33
2019-02-05T15:24:08.960Z,8.08
2019-02-05T15:26:38.442Z,8.09
2019-02-05T15:29:08.251Z,7.96
2019-02-05T15:31:37.993Z,7.71
2019-02-05T15:34:35.966Z,7.63
2019-02-05T15:37:05.782Z,7.52
2019-02-05T15:39:35.349Z,7.50
2019-02-05T15:42:05.069Z,7.46
2019-02-05T15:44:34.625Z,7.41
2019-02-05T15:47:04.134Z,7.31
2019-02-05T15:49:33.620Z,7.17
2019-02-05T15:52:03.163Z,7.15
2019-02-05T15:54:34.315Z,7.12
2019-02-05T15:57:03.923Z,7.06
2019-02-05T15:59:33.415Z,6.97
2019-02-05T16:02:06.583Z,6.93
2019-02-05T16:04:34.290Z,6.87
2019-02-05T16:07:04.034Z,6.79
2019-02-05T16:09:33.698Z,6.69
2019-02-05T16:12:03.212Z,6.79
2019-02-05T16:14:32.711Z,6.78
2019-02-05T16:17:02.218Z,6.77
2019-02-05T16:19:31.739Z,6.79
2019-02-05T16:22:01.276Z,6.81
2019-02-05T16:24:30.984Z,6.85
2019-02-05T16:27:00.766Z,6.87
2019-02-05T16:29:30.403Z,6.91
2019-02-05T16:32:00.164Z,6.94
2019-02-05T16:34:29.772Z,6.86
2019-02-05T16:36:59.326Z,6.85
2019-02-05T16:39:31.237Z,6.73
2019-02-05T16:42:00.750Z,6.69
2019-02-05T16:44:30.256Z,6.78
2019-02-05T16:46:59.834Z,6.77
2019-02-05T16:49:29.475Z,6.69
2019-02-05T16:51:59.122Z,6.57
2019-02-05T16:54:28.647Z,6.62
2019-02-05T16:56:58.147Z,6.72
2019-02-05T16:59:27.619Z,6.79
2019-02-05T17:01:57.440Z,6.88
2019-02-05T17:04:27.019Z,6.84
2019-02-05T17:06:56.491Z,6.79
2019-02-05T17:09:25.971Z,6.77
2019-02-05T17:11:56.986Z,6.70
2019-02-05T17:14:26.730Z,6.77
2019-02-05T17:16:56.225Z,6.76
2019-02-05T17:19:25.739Z,6.77
2019-02-05T17:21:55.603Z,6.72
2019-02-05T17:24:25.098Z,6.69
2019-02-05T17:26:54.749Z,6.67
2019-02-05T17:29:24.314Z,6.52
2019-02-05T17:31:54.156Z,6.53
2019-02-05T17:34:23.817Z,6.59
2019-02-05T17:36:53.823Z,6.65
2019-02-05T17:39:23.437Z,6.77
2019-02-05T17:41:53.080Z,6.81
2019-02-05T17:44:22.697Z,6.85
2019-02-05T17:46:52.203Z,6.88
2019-02-05T17:49:21.700Z,6.88
2019-02-05T17:51:51.570Z,6.93
2019-02-05T17:54:21.122Z,6.90
2019-02-05T17:56:50.683Z,6.90
2019-02-05T17:59:20.261Z,6.90
2019-02-05T18:01:49.813Z,6.97
2019-02-05T18:04:19.329Z,7.03
2019-02-05T18:06:49.176Z,6.99
2019-02-05T18:09:18.695Z,7.04
2019-02-05T18:11:48.339Z,7.03
2019-02-05T18:14:17.923Z,7.05
2019-02-05T18:16:47.443Z,7.02
2019-02-05T18:19:17.148Z,6.98
2019-02-05T18:21:46.739Z,6.96
2019-02-05T18:24:16.265Z,6.91
2019-02-05T18:26:45.786Z,6.95
2019-02-05T18:29:15.304Z,6.98
2019-02-05T18:31:44.988Z,6.90
2019-02-05T18:34:15.016Z,6.68
2019-02-05T18:36:44.613Z,6.54
2019-02-05T18:39:14.363Z,6.44
2019-02-05T18:41:43.859Z,6.35
2019-02-05T18:44:13.615Z,6.29
2019-02-05T18:46:43.152Z,6.25
2019-02-05T18:49:12.632Z,6.29
2019-02-05T18:51:42.189Z,6.27
2019-02-05T18:54:11.709Z,6.27
2019-02-05T18:56:41.226Z,6.18
2019-02-05T18:59:10.740Z,6.05
2019-02-05T19:01:40.265Z,6.04
2019-02-05T19:04:09.855Z,6.04
2019-02-05T19:06:39.407Z,6.17
2019-02-05T19:09:13.953Z,6.23
2019-02-05T19:11:46.295Z,6.35
2019-02-05T19:14:15.774Z,6.47
2019-02-05T19:16:45.308Z,6.52
2019-02-05T19:19:15.529Z,6.55
2019-02-05T19:21:45.056Z,6.69
2019-02-05T19:24:33.505Z,6.71
2019-02-05T19:27:02.991Z,6.81
2019-02-05T19:29:33.220Z,6.71
2019-02-05T19:32:02.833Z,6.64
2019-02-05T19:34:32.341Z,6.57
2019-02-05T19:37:02.426Z,6.66
2019-02-05T19:39:31.944Z,6.73
2019-02-05T19:42:01.419Z,6.72
2019-02-05T19:44:31.199Z,6.71
2019-02-05T19:47:06.449Z,6.69
2019-02-05T19:49:37.937Z,6.55
2019-02-05T19:52:07.940Z,6.61
2019-02-05T19:54:37.428Z,6.64
2019-02-05T19:57:06.908Z,6.74
2019-02-05T19:59:36.808Z,6.63
2019-02-05T20:02:06.722Z,6.65
2019-02-05T20:04:36.219Z,6.65
2019-02-05T20:07:05.764Z,6.54
2019-02-05T20:09:35.265Z,6.60
2019-02-05T20:12:04.968Z,6.69
2019-02-05T20:14:34.444Z,6.79
2019-02-05T20:17:07.738Z,6.91
2019-02-05T20:19:37.645Z,6.98
2019-02-05T20:22:07.108Z,7.05
2019-02-05T20:24:36.676Z,7.06
2019-02-05T20:27:06.690Z,6.95
2019-02-05T20:29:36.271Z,6.95
2019-02-05T20:32:06.038Z,7.07
2019-02-05T20:34:35.492Z,7.19
2019-02-05T20:37:05.025Z,7.22
2019-02-05T20:39:34.515Z,7.31
2019-02-05T20:42:04.379Z,7.33
2019-02-05T20:44:33.952Z,7.41
2019-02-05T20:47:03.984Z,7.49
2019-02-05T20:49:33.466Z,7.56
2019-02-05T20:52:03.940Z,7.48
2019-02-05T20:54:33.407Z,7.43
2019-02-05T20:57:02.887Z,7.40
2019-02-05T20:59:32.377Z,7.31
2019-02-05T21:02:01.885Z,7.25
2019-02-05T21:04:31.911Z,7.16
2019-02-05T21:07:01.383Z,6.93
2019-02-05T21:09:30.975Z,6.96
2019-02-05T21:12:00.410Z,6.85
2019-02-05T21:14:29.924Z,6.87
2019-02-05T21:16:59.420Z,6.94
2019-02-05T21:19:29.145Z,6.94
2019-02-05T21:21:58.664Z,6.85
2019-02-05T21:24:28.174Z,6.93
2019-02-05T21:26:57.668Z,7.01
2019-02-05T21:29:27.121Z,6.87
2019-02-05T21:31:56.648Z,6.97
2019-02-05T21:34:26.536Z,6.93
2019-02-05T21:36:56.046Z,6.98
2019-02-05T21:39:25.525Z,6.95
2019-02-05T21:41:55.033Z,6.94
2019-02-05T21:44:24.629Z,6.96
2019-02-05T21:46:54.127Z,6.78
2019-02-05T21:49:23.641Z,6.91
2019-02-05T21:51:53.985Z,6.80
2019-02-05T21:54:23.460Z,6.69
2019-02-05T21:56:52.927Z,6.79
2019-02-05T21:59:22.416Z,6.76
2019-02-05T22:01:51.915Z,6.81
2019-02-05T22:04:27.010Z,6.67
2019-02-05T22:06:52.662Z,6.64
2019-02-05T22:09:22.106Z,6.55
2019-02-05T22:11:51.886Z,6.63
2019-02-05T22:14:21.406Z,6.67
2019-02-05T22:16:50.933Z,6.77
2019-02-05T22:19:21.165Z,6.60
2019-02-05T22:21:51.172Z,6.69
2019-02-05T22:24:20.656Z,6.68
2019-02-05T22:26:50.106Z,6.72
2019-02-05T22:29:19.951Z,6.56
2019-02-05T22:31:49.469Z,6.55
2019-02-05T22:34:19.319Z,6.52
2019-02-05T22:36:48.822Z,6.53
2019-02-05T22:39:18.320Z,6.52
2019-02-05T22:41:47.930Z,6.34
2019-02-05T22:44:17.883Z,6.38
2019-02-05T22:46:47.829Z,6.38
2019-02-05T22:49:17.345Z,6.22
2019-02-05T22:51:47.272Z,6.17
2019-02-05T22:54:16.778Z,6.21
2019-02-05T22:56:46.543Z,6.15
2019-02-05T22:59:16.984Z,6.13
2019-02-05T23:01:55.701Z,6.08
2019-02-05T23:05:02.989Z,6.12
2019-02-05T23:07:32.624Z,6.12
2019-02-05T23:10:20.191Z,6.20
2019-02-05T23:12:56.462Z,6.28
2019-02-05T23:15:29.102Z,6.22
2019-02-05T23:17:58.434Z,6.10
2019-02-05T23:20:28.295Z,5.95
2019-02-05T23:22:58.162Z,5.99
2019-02-05T23:25:27.666Z,6.04
2019-02-05T23:27:57.210Z,5.88
2019-02-05T23:30:28.421Z,5.92
2019-02-05T23:32:58.196Z,5.89
2019-02-05T23:35:28.110Z,5.92
2019-02-05T23:37:57.596Z,5.78
2019-02-05T23:40:27.120Z,5.80
2019-02-05T23:42:56.747Z,5.80
2019-02-05T23:45:26.233Z,5.83
2019-02-05T23:47:55.783Z,5.87
2019-02-05T23:50:25.643Z,5.89
2019-02-05T23:52:55.194Z,5.79
2019-02-05T23:55:24.745Z,5.70
2019-02-05T23:57:54.280Z,5.65
